sensor_id;sensor_type;location;lat;lon;timestamp;pressure;altitude;pressure_sealevel;temperature;humidity
6532;BME280;3299;42.004;24.868;2023-01-30T00:00:30;98520.75;;;4.27;100.00
6532;BME280;3299;42.004;24.868;2023-01-30T00:02:55;98479.69;;;4.10;99.97
6532;BME280;3299;42.004;24.868;2023-01-30T00:05:20;98501.75;;;4.33;96.74
6532;BME280;3299;42.004;24.868;2023-01-30T00:07:46;98527.09;;;4.59;94.40
6532;BME280;3299;42.004;24.868;2023-01-30T00:10:12;98514.38;;;4.57;90.68
6532;BME280;3299;42.004;24.868;2023-01-30T00:12:37;98480.53;;;4.49;87.26
6532;BME280;3299;42.004;24.868;2023-01-30T00:15:03;98529.66;;;4.79;86.60
6532;BME280;3299;42.004;24.868;2023-01-30T00:17:29;98481.25;;;4.53;87.46
6532;BME280;3299;42.004;24.868;2023-01-30T00:19:54;98490.13;;;4.64;86.02
6532;BME280;3299;42.004;24.868;2023-01-30T00:22:19;98511.06;;;4.74;84.93
6532;BME280;3299;42.004;24.868;2023-01-30T00:24:45;98469.97;;;4.57;83.39
6532;BME280;3299;42.004;24.868;2023-01-30T00:27:10;98478.97;;;4.65;83.17
6532;BME280;3299;42.004;24.868;2023-01-30T00:29:38;98478.22;;;4.63;82.29
6532;BME280;3299;42.004;24.868;2023-01-30T00:32:05;98487.97;;;4.55;83.77
6532;BME280;3299;42.004;24.868;2023-01-30T00:34:31;98530.91;;;4.89;83.20
6532;BME280;3299;42.004;24.868;2023-01-30T00:36:56;98477.22;;;4.47;83.90
6532;BME280;3299;42.004;24.868;2023-01-30T00:39:22;98526.38;;;4.75;83.84
6532;BME280;3299;42.004;24.868;2023-01-30T00:41:47;98475.41;;;4.49;84.03
6532;BME280;3299;42.004;24.868;2023-01-30T00:44:31;98524.72;;;4.74;84.33
6532;BME280;3299;42.004;24.868;2023-01-30T00:47:15;98464.63;;;4.43;83.80
6532;BME280;3299;42.004;24.868;2023-01-30T00:49:41;98467.50;;;4.35;83.49
6532;BME280;3299;42.004;24.868;2023-01-30T00:52:06;98492.34;;;4.53;83.78
6532;BME280;3299;42.004;24.868;2023-01-30T00:54:32;98485.81;;;4.46;84.07
6532;BME280;3299;42.004;24.868;2023-01-30T00:56:57;98521.44;;;4.71;83.65
6532;BME280;3299;42.004;24.868;2023-01-30T00:59:23;98503.91;;;4.62;84.70
6532;BME280;3299;42.004;24.868;2023-01-30T01:01:48;98510.16;;;4.75;82.92
6532;BME280;3299;42.004;24.868;2023-01-30T01:04:14;98522.00;;;4.77;82.82
6532;BME280;3299;42.004;24.868;2023-01-30T01:06:39;98418.03;;;4.15;83.78
6532;BME280;3299;42.004;24.868;2023-01-30T01:09:05;98524.78;;;4.73;84.89
6532;BME280;3299;42.004;24.868;2023-01-30T01:11:31;98520.66;;;4.89;83.43
6532;BME280;3299;42.004;24.868;2023-01-30T01:13:59;98509.25;;;4.76;82.79
6532;BME280;3299;42.004;24.868;2023-01-30T01:16:25;98458.53;;;4.45;83.33
6532;BME280;3299;42.004;24.868;2023-01-30T01:18:52;98513.31;;;4.81;83.12
6532;BME280;3299;42.004;24.868;2023-01-30T01:21:18;98455.19;;;4.43;83.57
6532;BME280;3299;42.004;24.868;2023-01-30T01:23:48;98452.19;;;4.54;82.74
6532;BME280;3299;42.004;24.868;2023-01-30T01:26:14;98444.13;;;4.61;80.59
6532;BME280;3299;42.004;24.868;2023-01-30T01:28:40;98412.81;;;4.36;78.03
6532;BME280;3299;42.004;24.868;2023-01-30T01:31:13;98508.59;;;4.91;73.48
6532;BME280;3299;42.004;24.868;2023-01-30T01:33:39;98464.78;;;4.58;73.86
6532;BME280;3299;42.004;24.868;2023-01-30T01:36:05;98511.50;;;4.83;72.86
6532;BME280;3299;42.004;24.868;2023-01-30T01:38:31;98501.25;;;4.83;72.81
6532;BME280;3299;42.004;24.868;2023-01-30T01:40:57;98450.72;;;4.48;72.42
6532;BME280;3299;42.004;24.868;2023-01-30T01:43:34;98499.69;;;4.79;72.72
6532;BME280;3299;42.004;24.868;2023-01-30T01:46:17;98405.19;;;4.16;72.42
6532;BME280;3299;42.004;24.868;2023-01-30T01:48:48;98497.03;;;4.62;72.41
6532;BME280;3299;42.004;24.868;2023-01-30T01:51:21;98499.38;;;4.68;71.90
6532;BME280;3299;42.004;24.868;2023-01-30T01:53:53;98488.88;;;4.54;72.49
6532;BME280;3299;42.004;24.868;2023-01-30T01:56:20;98489.78;;;4.53;73.05
6532;BME280;3299;42.004;24.868;2023-01-30T01:58:53;98406.41;;;4.08;72.76
6532;BME280;3299;42.004;24.868;2023-01-30T02:01:23;98494.69;;;4.58;72.19
6532;BME280;3299;42.004;24.868;2023-01-30T02:03:53;98459.19;;;4.30;72.66
6532;BME280;3299;42.004;24.868;2023-01-30T02:06:21;98437.56;;;4.17;73.34
6532;BME280;3299;42.004;24.868;2023-01-30T02:08:51;98482.19;;;4.50;73.18
6532;BME280;3299;42.004;24.868;2023-01-30T02:11:33;98497.03;;;4.62;72.85
6532;BME280;3299;42.004;24.868;2023-01-30T02:14:02;98460.59;;;4.37;73.40
6532;BME280;3299;42.004;24.868;2023-01-30T02:16:27;98497.47;;;4.53;74.25
6532;BME280;3299;42.004;24.868;2023-01-30T02:18:53;98429.56;;;4.25;73.35
6532;BME280;3299;42.004;24.868;2023-01-30T02:35:51;98487.84;;;4.58;73.88
6532;BME280;3299;42.004;24.868;2023-01-30T02:41:17;98485.00;;;4.64;73.99
6532;BME280;3299;42.004;24.868;2023-01-30T02:46:17;98470.94;;;4.54;74.23
6532;BME280;3299;42.004;24.868;2023-01-30T02:51:22;98473.66;;;4.51;74.55
6532;BME280;3299;42.004;24.868;2023-01-30T02:53:50;98425.41;;;4.22;75.05
6532;BME280;3299;42.004;24.868;2023-01-30T02:56:15;98482.09;;;4.53;74.94
6532;BME280;3299;42.004;24.868;2023-01-30T02:58:46;98440.28;;;4.33;74.17
6532;BME280;3299;42.004;24.868;2023-01-30T03:09:27;98420.81;;;4.10;75.95
6532;BME280;3299;42.004;24.868;2023-01-30T03:14:46;98391.00;;;3.89;76.32
6532;BME280;3299;42.004;24.868;2023-01-30T03:17:15;98429.09;;;4.15;75.80
6532;BME280;3299;42.004;24.868;2023-01-30T03:19:42;98421.63;;;4.11;75.97
6532;BME280;3299;42.004;24.868;2023-01-30T03:22:08;98490.28;;;4.41;77.11
6532;BME280;3299;42.004;24.868;2023-01-30T03:24:34;98418.84;;;4.15;77.49
6532;BME280;3299;42.004;24.868;2023-01-30T03:27:05;98453.41;;;4.45;77.40
6532;BME280;3299;42.004;24.868;2023-01-30T03:29:33;98426.66;;;4.32;76.47
6532;BME280;3299;42.004;24.868;2023-01-30T03:31:59;98398.00;;;4.24;75.88
6532;BME280;3299;42.004;24.868;2023-01-30T03:34:24;98407.13;;;4.30;75.59
6532;BME280;3299;42.004;24.868;2023-01-30T03:36:49;98446.50;;;4.47;75.23
6532;BME280;3299;42.004;24.868;2023-01-30T03:39:15;98452.38;;;4.49;75.90
6532;BME280;3299;42.004;24.868;2023-01-30T03:41:41;98363.09;;;3.83;76.48
6532;BME280;3299;42.004;24.868;2023-01-30T03:44:06;98407.28;;;4.27;76.13
6532;BME280;3299;42.004;24.868;2023-01-30T03:46:31;98444.03;;;4.44;76.63
6532;BME280;3299;42.004;24.868;2023-01-30T03:48:57;98399.91;;;4.19;76.00
6532;BME280;3299;42.004;24.868;2023-01-30T03:51:22;98355.53;;;3.80;76.85
6532;BME280;3299;42.004;24.868;2023-01-30T03:53:48;98451.28;;;4.35;77.72
6532;BME280;3299;42.004;24.868;2023-01-30T03:56:13;98453.69;;;4.39;78.09
6532;BME280;3299;42.004;24.868;2023-01-30T03:58:38;98456.84;;;4.44;78.40
6532;BME280;3299;42.004;24.868;2023-01-30T04:01:04;98437.53;;;4.37;78.10
6532;BME280;3299;42.004;24.868;2023-01-30T04:03:29;98405.19;;;4.16;76.56
6532;BME280;3299;42.004;24.868;2023-01-30T04:05:55;98447.50;;;4.43;77.30
6532;BME280;3299;42.004;24.868;2023-01-30T04:08:20;98421.41;;;4.35;75.46
6532;BME280;3299;42.004;24.868;2023-01-30T04:10:45;98376.13;;;4.17;74.53
6532;BME280;3299;42.004;24.868;2023-01-30T04:13:11;98404.28;;;4.36;74.45
6532;BME280;3299;42.004;24.868;2023-01-30T04:15:36;98447.44;;;4.45;74.10
6532;BME280;3299;42.004;24.868;2023-01-30T04:18:01;98435.22;;;4.31;75.33
6532;BME280;3299;42.004;24.868;2023-01-30T04:20:27;98427.28;;;4.19;76.13
6532;BME280;3299;42.004;24.868;2023-01-30T04:22:54;98450.75;;;4.28;75.53
6532;BME280;3299;42.004;24.868;2023-01-30T04:25:20;98396.81;;;3.93;75.43
6532;BME280;3299;42.004;24.868;2023-01-30T04:27:45;98426.53;;;4.15;75.15
6532;BME280;3299;42.004;24.868;2023-01-30T04:30:11;98388.56;;;3.86;75.25
6532;BME280;3299;42.004;24.868;2023-01-30T04:32:36;98395.72;;;3.98;75.01
6532;BME280;3299;42.004;24.868;2023-01-30T04:35:02;98446.59;;;4.26;74.66
6532;BME280;3299;42.004;24.868;2023-01-30T04:37:27;98389.44;;;3.85;74.52
6532;BME280;3299;42.004;24.868;2023-01-30T04:39:52;98432.59;;;3.94;75.72
6532;BME280;3299;42.004;24.868;2023-01-30T04:42:18;98446.66;;;4.04;76.34
6532;BME280;3299;42.004;24.868;2023-01-30T04:44:43;98392.78;;;3.67;76.65
6532;BME280;3299;42.004;24.868;2023-01-30T04:47:08;98432.53;;;3.96;76.77
6532;BME280;3299;42.004;24.868;2023-01-30T04:49:34;98447.63;;;4.02;77.44
6532;BME280;3299;42.004;24.868;2023-01-30T04:51:59;98395.72;;;3.78;76.06
6532;BME280;3299;42.004;24.868;2023-01-30T04:54:25;98451.34;;;4.15;76.39
6532;BME280;3299;42.004;24.868;2023-01-30T04:56:50;98398.03;;;3.84;76.31
6532;BME280;3299;42.004;24.868;2023-01-30T04:59:15;98454.66;;;4.17;76.05
6532;BME280;3299;42.004;24.868;2023-01-30T05:01:41;98442.75;;;4.16;75.73
6532;BME280;3299;42.004;24.868;2023-01-30T05:04:07;98395.00;;;3.95;74.27
6532;BME280;3299;42.004;24.868;2023-01-30T05:06:33;98387.09;;;3.81;73.83
6532;BME280;3299;42.004;24.868;2023-01-30T05:09:00;98404.81;;;3.85;74.37
6532;BME280;3299;42.004;24.868;2023-01-30T05:11:27;98403.09;;;3.86;74.36
6532;BME280;3299;42.004;24.868;2023-01-30T05:13:53;98449.72;;;4.12;73.96
6532;BME280;3299;42.004;24.868;2023-01-30T05:16:19;98462.66;;;4.09;73.68
6532;BME280;3299;42.004;24.868;2023-01-30T05:18:45;98459.22;;;4.10;73.81
6532;BME280;3299;42.004;24.868;2023-01-30T05:21:22;98448.59;;;3.99;74.10
6532;BME280;3299;42.004;24.868;2023-01-30T05:23:51;98465.34;;;4.06;74.82
6532;BME280;3299;42.004;24.868;2023-01-30T05:26:17;98461.19;;;4.04;74.37
6532;BME280;3299;42.004;24.868;2023-01-30T05:28:43;98463.44;;;4.11;74.10
6532;BME280;3299;42.004;24.868;2023-01-30T05:31:11;98462.78;;;4.06;74.85
6532;BME280;3299;42.004;24.868;2023-01-30T05:33:37;98452.84;;;3.99;74.24
6532;BME280;3299;42.004;24.868;2023-01-30T05:36:03;98420.31;;;3.82;73.79
6532;BME280;3299;42.004;24.868;2023-01-30T05:38:31;98405.91;;;3.80;73.48
6532;BME280;3299;42.004;24.868;2023-01-30T05:41:05;98440.81;;;4.01;73.37
6532;BME280;3299;42.004;24.868;2023-01-30T05:43:31;98443.72;;;3.93;74.39
6532;BME280;3299;42.004;24.868;2023-01-30T05:45:58;98444.78;;;3.88;73.72
6532;BME280;3299;42.004;24.868;2023-01-30T05:48:24;98440.53;;;3.88;73.61
6532;BME280;3299;42.004;24.868;2023-01-30T05:50:52;98441.34;;;3.89;73.98
6532;BME280;3299;42.004;24.868;2023-01-30T05:53:19;98444.75;;;3.89;74.99
6532;BME280;3299;42.004;24.868;2023-01-30T05:55:45;98448.75;;;3.95;73.91
6532;BME280;3299;42.004;24.868;2023-01-30T05:58:10;98389.41;;;3.67;73.66
6532;BME280;3299;42.004;24.868;2023-01-30T06:00:36;98416.25;;;3.77;73.42
6532;BME280;3299;42.004;24.868;2023-01-30T06:03:02;98399.56;;;3.68;73.31
6532;BME280;3299;42.004;24.868;2023-01-30T06:05:27;98426.38;;;3.80;73.75
6532;BME280;3299;42.004;24.868;2023-01-30T06:07:52;98411.09;;;3.58;73.04
6532;BME280;3299;42.004;24.868;2023-01-30T06:10:18;98455.03;;;3.88;73.38
6532;BME280;3299;42.004;24.868;2023-01-30T06:12:43;98423.69;;;3.63;73.92
6532;BME280;3299;42.004;24.868;2023-01-30T06:15:09;98394.28;;;3.51;73.74
6532;BME280;3299;42.004;24.868;2023-01-30T06:17:35;98465.00;;;3.94;73.52
6532;BME280;3299;42.004;24.868;2023-01-30T06:20:00;98467.97;;;4.05;73.58
6532;BME280;3299;42.004;24.868;2023-01-30T06:22:25;98411.09;;;3.78;72.78
6532;BME280;3299;42.004;24.868;2023-01-30T06:24:51;98417.78;;;3.81;72.62
6532;BME280;3299;42.004;24.868;2023-01-30T06:27:16;98418.66;;;3.81;72.23
6532;BME280;3299;42.004;24.868;2023-01-30T06:29:41;98456.06;;;4.04;72.23
6532;BME280;3299;42.004;24.868;2023-01-30T06:32:07;98447.88;;;3.96;73.25
6532;BME280;3299;42.004;24.868;2023-01-30T06:34:33;98468.81;;;4.05;73.24
6532;BME280;3299;42.004;24.868;2023-01-30T06:36:59;98415.03;;;3.85;73.18
6532;BME280;3299;42.004;24.868;2023-01-30T06:39:24;98473.53;;;4.14;72.72
6532;BME280;3299;42.004;24.868;2023-01-30T06:41:50;98465.34;;;4.06;73.23
6532;BME280;3299;42.004;24.868;2023-01-30T06:44:15;98421.38;;;3.77;73.56
6532;BME280;3299;42.004;24.868;2023-01-30T06:46:40;98475.69;;;4.03;73.77
6532;BME280;3299;42.004;24.868;2023-01-30T06:49:06;98467.47;;;3.97;74.95
6532;BME280;3299;42.004;24.868;2023-01-30T06:51:31;98426.19;;;3.64;75.74
6532;BME280;3299;42.004;24.868;2023-01-30T06:53:56;98398.84;;;3.45;75.58
6532;BME280;3299;42.004;24.868;2023-01-30T06:56:22;98461.91;;;3.87;76.75
6532;BME280;3299;42.004;24.868;2023-01-30T06:58:47;98486.78;;;3.84;78.26
6532;BME280;3299;42.004;24.868;2023-01-30T07:01:13;98449.06;;;3.67;77.80
6532;BME280;3299;42.004;24.868;2023-01-30T07:03:38;98480.75;;;3.85;78.27
6532;BME280;3299;42.004;24.868;2023-01-30T07:06:04;98411.69;;;3.43;78.73
6532;BME280;3299;42.004;24.868;2023-01-30T07:08:29;98474.09;;;3.81;78.68
6532;BME280;3299;42.004;24.868;2023-01-30T07:10:55;98416.56;;;3.49;79.69
6532;BME280;3299;42.004;24.868;2023-01-30T07:13:20;98413.09;;;3.50;78.86
6532;BME280;3299;42.004;24.868;2023-01-30T07:15:45;98447.91;;;3.74;79.43
6532;BME280;3299;42.004;24.868;2023-01-30T07:18:11;98478.13;;;3.86;79.50
6532;BME280;3299;42.004;24.868;2023-01-30T07:20:37;98413.88;;;3.52;80.07
6532;BME280;3299;42.004;24.868;2023-01-30T07:23:02;98446.41;;;3.70;79.63
6532;BME280;3299;42.004;24.868;2023-01-30T07:25:29;98464.81;;;3.78;80.46
6532;BME280;3299;42.004;24.868;2023-01-30T07:27:59;98469.94;;;3.78;79.96
6532;BME280;3299;42.004;24.868;2023-01-30T07:30:26;98470.06;;;3.75;80.41
6532;BME280;3299;42.004;24.868;2023-01-30T07:32:54;98419.41;;;3.42;79.82
6532;BME280;3299;42.004;24.868;2023-01-30T07:35:22;98465.00;;;3.74;79.66
6532;BME280;3299;42.004;24.868;2023-01-30T07:37:49;98468.53;;;3.91;80.15
6532;BME280;3299;42.004;24.868;2023-01-30T07:40:19;98469.44;;;3.90;79.82
6532;BME280;3299;42.004;24.868;2023-01-30T07:42:57;98412.59;;;3.62;79.26
6532;BME280;3299;42.004;24.868;2023-01-30T07:45:24;98441.03;;;3.76;78.28
6532;BME280;3299;42.004;24.868;2023-01-30T07:47:49;98474.16;;;3.79;78.52
6532;BME280;3299;42.004;24.868;2023-01-30T07:50:15;98414.84;;;3.50;79.18
6532;BME280;3299;42.004;24.868;2023-01-30T07:52:41;98413.34;;;3.44;79.38
6532;BME280;3299;42.004;24.868;2023-01-30T07:55:06;98451.63;;;3.67;78.82
6532;BME280;3299;42.004;24.868;2023-01-30T07:57:32;98461.59;;;3.73;79.38
6532;BME280;3299;42.004;24.868;2023-01-30T07:59:57;98459.69;;;3.78;78.52
6532;BME280;3299;42.004;24.868;2023-01-30T08:02:22;98464.06;;;3.76;78.69
6532;BME280;3299;42.004;24.868;2023-01-30T08:04:48;98412.28;;;3.50;79.30
6532;BME280;3299;42.004;24.868;2023-01-30T08:07:13;98413.00;;;3.53;78.93
6532;BME280;3299;42.004;24.868;2023-01-30T08:09:39;98466.41;;;3.81;78.93
6532;BME280;3299;42.004;24.868;2023-01-30T08:12:04;98460.09;;;3.69;79.14
6532;BME280;3299;42.004;24.868;2023-01-30T08:14:29;98392.44;;;3.35;80.19
6532;BME280;3299;42.004;24.868;2023-01-30T08:16:55;98457.91;;;3.80;80.50
6532;BME280;3299;42.004;24.868;2023-01-30T08:19:21;98459.09;;;3.93;79.04
6532;BME280;3299;42.004;24.868;2023-01-30T08:21:46;98413.38;;;3.64;78.71
6532;BME280;3299;42.004;24.868;2023-01-30T08:24:12;98463.94;;;3.99;79.06
6532;BME280;3299;42.004;24.868;2023-01-30T08:26:37;98463.09;;;3.99;78.66
6532;BME280;3299;42.004;24.868;2023-01-30T08:29:03;98457.38;;;3.92;79.19
6532;BME280;3299;42.004;24.868;2023-01-30T08:31:28;98443.28;;;3.84;79.43
6532;BME280;3299;42.004;24.868;2023-01-30T08:33:53;98461.44;;;3.98;79.93
6532;BME280;3299;42.004;24.868;2023-01-30T08:36:19;98456.63;;;3.90;79.03
6532;BME280;3299;42.004;24.868;2023-01-30T08:38:44;98452.53;;;3.86;79.68
6532;BME280;3299;42.004;24.868;2023-01-30T08:41:10;98396.09;;;3.49;79.75
6532;BME280;3299;42.004;24.868;2023-01-30T08:43:35;98391.81;;;3.50;80.14
6532;BME280;3299;42.004;24.868;2023-01-30T08:46:01;98395.97;;;3.52;79.72
6532;BME280;3299;42.004;24.868;2023-01-30T08:48:26;98394.19;;;3.54;80.83
6532;BME280;3299;42.004;24.868;2023-01-30T08:50:53;98409.13;;;3.63;80.75
6532;BME280;3299;42.004;24.868;2023-01-30T08:53:19;98446.41;;;3.90;79.60
6532;BME280;3299;42.004;24.868;2023-01-30T08:55:48;98389.31;;;3.48;79.17
6532;BME280;3299;42.004;24.868;2023-01-30T08:58:14;98450.81;;;3.87;79.80
6532;BME280;3299;42.004;24.868;2023-01-30T09:00:42;98436.34;;;3.86;78.80
6532;BME280;3299;42.004;24.868;2023-01-30T09:03:09;98428.03;;;3.81;78.53
6532;BME280;3299;42.004;24.868;2023-01-30T09:05:34;98390.72;;;3.55;78.09
6532;BME280;3299;42.004;24.868;2023-01-30T09:08:00;98436.66;;;3.78;78.85
6532;BME280;3299;42.004;24.868;2023-01-30T09:10:25;98447.56;;;3.83;77.95
6532;BME280;3299;42.004;24.868;2023-01-30T09:12:50;98415.09;;;3.64;77.98
6532;BME280;3299;42.004;24.868;2023-01-30T09:15:16;98320.63;;;3.19;78.12
6532;BME280;3299;42.004;24.868;2023-01-30T09:17:41;98373.72;;;3.54;77.80
6532;BME280;3299;42.004;24.868;2023-01-30T09:20:09;98361.84;;;3.53;77.40
6532;BME280;3299;42.004;24.868;2023-01-30T09:22:36;98403.91;;;3.86;77.08
6532;BME280;3299;42.004;24.868;2023-01-30T09:25:01;98315.66;;;3.36;76.63
6532;BME280;3299;42.004;24.868;2023-01-30T09:27:27;98360.22;;;3.71;76.36
6532;BME280;3299;42.004;24.868;2023-01-30T09:29:52;98392.13;;;4.02;75.70
6532;BME280;3299;42.004;24.868;2023-01-30T09:32:18;98341.41;;;3.72;74.95
6532;BME280;3299;42.004;24.868;2023-01-30T09:34:43;98342.53;;;3.66;75.77
6532;BME280;3299;42.004;24.868;2023-01-30T09:37:08;98353.88;;;3.79;75.70
6532;BME280;3299;42.004;24.868;2023-01-30T09:39:34;98375.75;;;4.06;77.05
6532;BME280;3299;42.004;24.868;2023-01-30T09:42:23;98388.50;;;4.26;75.34
6532;BME280;3299;42.004;24.868;2023-01-30T09:46:00;98385.69;;;4.32;74.28
6532;BME280;3299;42.004;24.868;2023-01-30T09:53:29;98361.25;;;4.44;73.31
6532;BME280;3299;42.004;24.868;2023-01-30T09:55:57;98359.66;;;4.41;72.91
6532;BME280;3299;42.004;24.868;2023-01-30T09:58:24;98310.72;;;4.10;72.31
6532;BME280;3299;42.004;24.868;2023-01-30T10:00:55;98346.50;;;4.30;72.37
6532;BME280;3299;42.004;24.868;2023-01-30T10:03:57;98333.06;;;4.25;72.47
6532;BME280;3299;42.004;24.868;2023-01-30T10:06:25;98337.91;;;4.31;72.69
6532;BME280;3299;42.004;24.868;2023-01-30T10:11:59;98275.47;;;4.15;72.79
6532;BME280;3299;42.004;24.868;2023-01-30T10:14:45;98318.69;;;4.60;72.20
6532;BME280;3299;42.004;24.868;2023-01-30T10:20:15;98308.06;;;4.67;70.40
6532;BME280;3299;42.004;24.868;2023-01-30T10:26:31;98296.75;;;4.90;70.54
6532;BME280;3299;42.004;24.868;2023-01-30T10:29:02;98294.50;;;5.01;69.74
6532;BME280;3299;42.004;24.868;2023-01-30T10:31:36;98240.25;;;4.74;70.63
6532;BME280;3299;42.004;24.868;2023-01-30T10:39:27;98266.13;;;5.21;68.45
6532;BME280;3299;42.004;24.868;2023-01-30T10:42:25;98274.44;;;5.26;67.37
6532;BME280;3299;42.004;24.868;2023-01-30T10:44:59;98156.81;;;4.69;65.99
6532;BME280;3299;42.004;24.868;2023-01-30T10:50:13;98200.31;;;4.87;65.63
6532;BME280;3299;42.004;24.868;2023-01-30T10:53:15;98250.06;;;5.17;65.84
6532;BME280;3299;42.004;24.868;2023-01-30T10:55:47;98142.88;;;4.57;67.32
6532;BME280;3299;42.004;24.868;2023-01-30T10:58:24;98246.59;;;5.18;66.48
6532;BME280;3299;42.004;24.868;2023-01-30T11:01:20;98239.66;;;5.20;67.35
6532;BME280;3299;42.004;24.868;2023-01-30T11:04:30;98231.94;;;5.20;65.58
6532;BME280;3299;42.004;24.868;2023-01-30T11:06:58;98192.94;;;4.98;66.24
6532;BME280;3299;42.004;24.868;2023-01-30T11:09:40;98168.88;;;4.84;67.56
6532;BME280;3299;42.004;24.868;2023-01-30T11:12:06;98144.44;;;4.77;65.17
6532;BME280;3299;42.004;24.868;2023-01-30T11:14:49;98166.09;;;4.88;65.08
6532;BME280;3299;42.004;24.868;2023-01-30T11:17:17;98139.25;;;4.78;66.07
6532;BME280;3299;42.004;24.868;2023-01-30T11:19:43;98195.16;;;5.21;65.64
6532;BME280;3299;42.004;24.868;2023-01-30T11:22:12;98128.69;;;4.84;65.98
6532;BME280;3299;42.004;24.868;2023-01-30T11:24:43;98138.56;;;4.92;64.06
6532;BME280;3299;42.004;24.868;2023-01-30T11:27:26;98188.28;;;5.22;65.61
6532;BME280;3299;42.004;24.868;2023-01-30T11:32:28;98153.38;;;5.02;64.72
6532;BME280;3299;42.004;24.868;2023-01-30T11:37:35;98152.41;;;5.05;64.49
6532;BME280;3299;42.004;24.868;2023-01-30T11:42:46;98150.09;;;5.00;65.29
6532;BME280;3299;42.004;24.868;2023-01-30T11:45:12;98161.53;;;5.10;64.58
6532;BME280;3299;42.004;24.868;2023-01-30T11:47:47;98106.63;;;4.65;64.30
6532;BME280;3299;42.004;24.868;2023-01-30T11:50:17;98105.38;;;4.39;63.39
6532;BME280;3299;42.004;24.868;2023-01-30T11:52:44;98077.03;;;4.25;64.77
6532;BME280;3299;42.004;24.868;2023-01-30T11:55:14;98072.28;;;4.35;65.81
6532;BME280;3299;42.004;24.868;2023-01-30T11:57:47;98135.63;;;4.82;65.72
6532;BME280;3299;42.004;24.868;2023-01-30T12:00:37;98096.47;;;4.63;65.87
6532;BME280;3299;42.004;24.868;2023-01-30T12:03:04;98124.44;;;5.00;65.52
6532;BME280;3299;42.004;24.868;2023-01-30T12:05:32;98067.97;;;4.69;65.84
6532;BME280;3299;42.004;24.868;2023-01-30T12:10:46;98053.63;;;4.82;65.63
6532;BME280;3299;42.004;24.868;2023-01-30T12:15:45;98003.91;;;4.69;66.20
6532;BME280;3299;42.004;24.868;2023-01-30T12:18:19;98103.84;;;5.34;64.56
6532;BME280;3299;42.004;24.868;2023-01-30T12:26:39;98019.00;;;4.91;64.36
6532;BME280;3299;42.004;24.868;2023-01-30T12:34:20;98060.56;;;5.28;64.55
6532;BME280;3299;42.004;24.868;2023-01-30T12:43:24;98080.44;;;5.56;63.18
6532;BME280;3299;42.004;24.868;2023-01-30T12:45:32;98070.78;;;5.61;63.91
6532;BME280;3299;42.004;24.868;2023-01-30T12:58:55;98054.47;;;5.46;63.81
6532;BME280;3299;42.004;24.868;2023-01-30T13:12:45;98040.66;;;5.33;63.36
6532;BME280;3299;42.004;24.868;2023-01-30T13:15:36;98039.28;;;5.26;64.25
6532;BME280;3299;42.004;24.868;2023-01-30T13:18:22;97982.38;;;4.89;64.94
6532;BME280;3299;42.004;24.868;2023-01-30T13:26:10;98031.50;;;5.12;64.29
6532;BME280;3299;42.004;24.868;2023-01-30T13:28:40;98024.88;;;5.08;65.21
6532;BME280;3299;42.004;24.868;2023-01-30T13:31:11;97973.75;;;4.74;65.91
6532;BME280;3299;42.004;24.868;2023-01-30T13:33:40;97963.00;;;4.68;66.00
6532;BME280;3299;42.004;24.868;2023-01-30T13:36:15;97920.13;;;4.39;66.45
6532;BME280;3299;42.004;24.868;2023-01-30T13:41:32;97991.78;;;4.88;67.55
6532;BME280;3299;42.004;24.868;2023-01-30T13:44:02;98019.09;;;5.05;67.27
6532;BME280;3299;42.004;24.868;2023-01-30T13:46:31;98003.88;;;5.02;67.72
6532;BME280;3299;42.004;24.868;2023-01-30T13:49:03;98023.69;;;5.15;67.83
6532;BME280;3299;42.004;24.868;2023-01-30T14:06:10;97999.75;;;4.99;67.61
6532;BME280;3299;42.004;24.868;2023-01-30T14:08:55;97999.75;;;4.99;68.69
6532;BME280;3299;42.004;24.868;2023-01-30T14:13:59;97940.34;;;4.76;68.73
6532;BME280;3299;42.004;24.868;2023-01-30T14:16:39;97986.03;;;5.00;68.41
6532;BME280;3299;42.004;24.868;2023-01-30T14:21:55;97997.44;;;5.10;67.60
6532;BME280;3299;42.004;24.868;2023-01-30T14:24:22;97981.72;;;5.01;67.88
6532;BME280;3299;42.004;24.868;2023-01-30T14:40:01;97928.34;;;4.45;69.13
6532;BME280;3299;42.004;24.868;2023-01-30T14:42:29;97971.94;;;4.76;68.70
6532;BME280;3299;42.004;24.868;2023-01-30T14:47:24;97964.28;;;4.59;69.66
6532;BME280;3299;42.004;24.868;2023-01-30T14:49:51;97966.47;;;4.67;69.28
6532;BME280;3299;42.004;24.868;2023-01-30T14:52:30;97970.59;;;4.69;70.05
6532;BME280;3299;42.004;24.868;2023-01-30T14:54:59;97963.84;;;4.68;70.57
6532;BME280;3299;42.004;24.868;2023-01-30T14:57:26;97962.06;;;4.69;69.98
6532;BME280;3299;42.004;24.868;2023-01-30T15:00:00;97919.28;;;4.38;70.19
6532;BME280;3299;42.004;24.868;2023-01-30T15:02:31;97920.47;;;4.48;70.10
6532;BME280;3299;42.004;24.868;2023-01-30T15:07:46;97955.97;;;4.71;69.99
6532;BME280;3299;42.004;24.868;2023-01-30T15:16:08;97983.09;;;4.75;71.27
6532;BME280;3299;42.004;24.868;2023-01-30T15:24:43;97914.63;;;4.46;69.12
6532;BME280;3299;42.004;24.868;2023-01-30T15:30:15;97935.56;;;4.37;68.43
6532;BME280;3299;42.004;24.868;2023-01-30T15:32:43;97930.41;;;4.22;69.23
6532;BME280;3299;42.004;24.868;2023-01-30T15:37:53;97978.34;;;4.52;68.76
6532;BME280;3299;42.004;24.868;2023-01-30T15:40:22;97980.44;;;4.44;68.34
6532;BME280;3299;42.004;24.868;2023-01-30T15:43:17;97992.81;;;4.36;69.22
6532;BME280;3299;42.004;24.868;2023-01-30T15:51:12;97966.56;;;4.16;68.21
6532;BME280;3299;42.004;24.868;2023-01-30T15:53:43;97985.00;;;4.22;68.27
6532;BME280;3299;42.004;24.868;2023-01-30T15:56:10;97988.31;;;4.24;68.18
6532;BME280;3299;42.004;24.868;2023-01-30T15:58:42;97927.06;;;3.87;67.33
6532;BME280;3299;42.004;24.868;2023-01-30T16:01:09;97874.41;;;3.49;67.49
6532;BME280;3299;42.004;24.868;2023-01-30T16:03:40;97881.63;;;3.41;68.08
6532;BME280;3299;42.004;24.868;2023-01-30T16:06:23;97873.66;;;3.30;68.11
6532;BME280;3299;42.004;24.868;2023-01-30T16:09:04;97919.91;;;3.60;68.79
6532;BME280;3299;42.004;24.868;2023-01-30T16:11:33;97981.38;;;3.92;68.66
6532;BME280;3299;42.004;24.868;2023-01-30T16:13:59;97924.13;;;3.61;68.62
6532;BME280;3299;42.004;24.868;2023-01-30T16:16:24;97957.25;;;3.81;68.51
6532;BME280;3299;42.004;24.868;2023-01-30T16:21:26;97978.38;;;3.84;68.69
6532;BME280;3299;42.004;24.868;2023-01-30T16:26:40;97956.19;;;3.68;68.85
6532;BME280;3299;42.004;24.868;2023-01-30T16:29:14;97913.56;;;3.33;70.03
6532;BME280;3299;42.004;24.868;2023-01-30T16:31:40;97937.66;;;3.46;69.83
6532;BME280;3299;42.004;24.868;2023-01-30T16:34:30;97963.63;;;3.72;70.53